Погода Надежевкана 2 недели

Ростовская область, Россия

20 мая-02 июня
  • 20мая
    Сегодня
    +9°
    +23°
    Небольшая облачность
    ВремяПогодаТемператураВлажностьДавлениеВетер, м/сВероятность осадков
    00:00Ясно и безоблачно+10°C87 %758 мм2.1 м/с2 %
    03:00Ясно и безоблачно+11°C83 %758 мм0.4 м/с2 %
    06:00Ясно и безоблачно+10°C86 %759 мм0.6 м/с2 %
    09:00Практически безоблачно+19°C50 %759 мм2.0 м/с2 %
    12:00Практически безоблачно+22°C39 %759 мм2.3 м/с4 %
    15:00Небольшая облачность+23°C36 %759 мм1.6 м/с3 %
    18:00Небольшая облачность+22°C33 %758 мм1.9 м/с2 %
    21:00Практически безоблачно+16°C60 %760 мм2.3 м/с2 %
  • 21мая
    Вторник
    +9°
    +25°
    Облачно с прояснениями
    ВремяПогодаТемператураВлажностьДавлениеВетер, м/сВероятность осадков
    00:00Ясно и безоблачно+13°C67 %760 мм1.7 м/с2 %
    03:00Ясно и безоблачно+11°C79 %760 мм2.5 м/с2 %
    06:00Практически безоблачно+12°C73 %761 мм2.0 м/с2 %
    09:00Ясно и безоблачно+22°C40 %761 мм1.2 м/с2 %
    12:00Облачно с прояснениями+24°C29 %761 мм0.9 м/с2 %
    15:00Облачно с прояснениями+25°C27 %761 мм0.8 м/с2 %
    18:00Ясно и безоблачно+24°C27 %760 мм1.9 м/с2 %
    21:00Ясно и безоблачно+17°C48 %760 мм2.3 м/с2 %
  • 22мая
    Среда
    +10°
    +28°
    Практически безоблачно
    ВремяПогодаТемператураВлажностьДавлениеВетер, м/сВероятность осадков
    00:00Небольшая облачность+13°C59 %760 мм2.1 м/с2 %
    03:00Ясно и безоблачно+11°C65 %760 мм1.8 м/с2 %
    06:00Ясно и безоблачно+12°C57 %760 мм1.8 м/с2 %
    09:00Ясно и безоблачно+23°C31 %760 мм1.2 м/с2 %
    12:00Облачно с прояснениями+26°C23 %760 мм3.0 м/с2 %
    15:00Практически безоблачно+27°C22 %759 мм3.0 м/с2 %
    18:00Ясно и безоблачно+25°C22 %758 мм4.7 м/с2 %
    21:00Ясно и безоблачно+18°C39 %758 мм2.8 м/с2 %
  • 23мая
    Четверг
    +12°
    +28°
    Практически безоблачно
    ВремяПогодаТемператураВлажностьДавлениеВетер, м/сВероятность осадков
    00:00Ясно и безоблачно+14°C47 %758 мм2.0 м/с2 %
    03:00Ясно и безоблачно+11°C54 %758 мм2.1 м/с2 %
    06:00Ясно и безоблачно+13°C54 %759 мм1.5 м/с2 %
    09:00Ясно и безоблачно+24°C34 %759 мм1.1 м/с2 %
    12:00Ясно и безоблачно+27°C24 %758 мм3.2 м/с3 %
    15:00Практически безоблачно+28°C24 %758 мм2.9 м/с14 %
    18:00Практически безоблачно+25°C31 %758 мм5.6 м/с15 %
    21:00Ясно и безоблачно+20°C45 %759 мм5.5 м/с2 %
  • 24мая
    Пятница
    +9°
    +23°
    Ясно и безоблачно
    ВремяПогодаТемператураВлажностьДавлениеВетер, м/сВероятность осадков
    00:00Ясно и безоблачно+17°C59 %760 мм5.2 м/с2 %
    03:00Ясно и безоблачно+14°C70 %761 мм5.9 м/с2 %
    06:00Ясно и безоблачно+13°C47 %762 мм6.6 м/с2 %
    09:00Ясно и безоблачно+18°C36 %763 мм6.8 м/с2 %
    12:00Ясно и безоблачно+22°C32 %763 мм7.2 м/с4 %
    15:00Ясно и безоблачно+23°C25 %763 мм7.0 м/с6 %
    18:00Ясно и безоблачно+21°C20 %763 мм7.2 м/с3 %
    21:00Ясно и безоблачно+16°C25 %765 мм5.8 м/с2 %
Мы используем cookies
Соглашаюсь